sensor_id;sensor_type;location;lat;lon;timestamp;P1;durP1;ratioP1;P2;durP2;ratioP2
58340;SDS011;44149;43.060;0.104;2022-12-18T00:01:22;0.75;;;0.65;;
58340;SDS011;44149;43.060;0.104;2022-12-18T00:03:49;18.63;;;5.38;;
58340;SDS011;44149;43.060;0.104;2022-12-18T00:06:16;7.95;;;4.38;;
58340;SDS011;44149;43.060;0.104;2022-12-18T00:08:42;12.82;;;6.70;;
58340;SDS011;44149;43.060;0.104;2022-12-18T00:11:13;1.08;;;0.85;;
58340;SDS011;44149;43.060;0.104;2022-12-18T00:13:39;0.20;;;0.20;;
58340;SDS011;44149;43.060;0.104;2022-12-18T00:16:09;5.88;;;1.00;;
58340;SDS011;44149;43.060;0.104;2022-12-18T00:18:35;1.70;;;1.05;;
58340;SDS011;44149;43.060;0.104;2022-12-18T00:21:03;1.45;;;0.50;;
58340;SDS011;44149;43.060;0.104;2022-12-18T00:23:29;1.38;;;0.63;;
58340;SDS011;44149;43.060;0.104;2022-12-18T00:26:04;0.30;;;0.30;;
58340;SDS011;44149;43.060;0.104;2022-12-18T00:28:30;0.40;;;0.40;;
58340;SDS011;44149;43.060;0.104;2022-12-18T00:31:03;0.22;;;0.22;;
58340;SDS011;44149;43.060;0.104;2022-12-18T00:33:30;0.30;;;0.30;;
58340;SDS011;44149;43.060;0.104;2022-12-18T00:36:03;0.28;;;0.28;;
58340;SDS011;44149;43.060;0.104;2022-12-18T00:38:29;0.82;;;0.80;;
58340;SDS011;44149;43.060;0.104;2022-12-18T00:40:55;0.47;;;0.47;;
58340;SDS011;44149;43.060;0.104;2022-12-18T00:43:21;0.40;;;0.40;;
58340;SDS011;44149;43.060;0.104;2022-12-18T00:45:47;0.32;;;0.30;;
58340;SDS011;44149;43.060;0.104;2022-12-18T00:48:13;0.20;;;0.20;;
58340;SDS011;44149;43.060;0.104;2022-12-18T00:50:40;0.25;;;0.25;;
58340;SDS011;44149;43.060;0.104;2022-12-18T00:53:06;0.52;;;0.35;;
58340;SDS011;44149;43.060;0.104;2022-12-18T00:55:32;0.20;;;0.20;;
58340;SDS011;44149;43.060;0.104;2022-12-18T00:57:58;0.20;;;0.20;;
58340;SDS011;44149;43.060;0.104;2022-12-18T01:00:24;0.43;;;0.43;;
58340;SDS011;44149;43.060;0.104;2022-12-18T01:02:50;0.32;;;0.32;;
58340;SDS011;44149;43.060;0.104;2022-12-18T01:05:16;0.43;;;0.40;;
58340;SDS011;44149;43.060;0.104;2022-12-18T01:07:43;0.30;;;0.30;;
58340;SDS011;44149;43.060;0.104;2022-12-18T01:10:09;0.20;;;0.20;;
58340;SDS011;44149;43.060;0.104;2022-12-18T01:12:36;0.22;;;0.22;;
58340;SDS011;44149;43.060;0.104;2022-12-18T01:15:02;0.20;;;0.20;;
58340;SDS011;44149;43.060;0.104;2022-12-18T01:17:29;0.20;;;0.20;;
58340;SDS011;44149;43.060;0.104;2022-12-18T01:19:55;0.20;;;0.20;;
58340;SDS011;44149;43.060;0.104;2022-12-18T01:22:21;0.30;;;0.30;;
58340;SDS011;44149;43.060;0.104;2022-12-18T01:24:47;0.20;;;0.20;;
58340;SDS011;44149;43.060;0.104;2022-12-18T01:27:14;0.30;;;0.30;;
58340;SDS011;44149;43.060;0.104;2022-12-18T01:29:40;0.20;;;0.20;;
58340;SDS011;44149;43.060;0.104;2022-12-18T01:32:07;0.20;;;0.20;;
58340;SDS011;44149;43.060;0.104;2022-12-18T01:34:35;0.30;;;0.30;;
58340;SDS011;44149;43.060;0.104;2022-12-18T01:37:02;1.98;;;0.40;;
58340;SDS011;44149;43.060;0.104;2022-12-18T01:39:28;0.22;;;0.22;;
58340;SDS011;44149;43.060;0.104;2022-12-18T01:41:54;0.20;;;0.20;;
58340;SDS011;44149;43.060;0.104;2022-12-18T01:44:51;0.30;;;0.30;;
58340;SDS011;44149;43.060;0.104;2022-12-18T01:49:48;0.20;;;0.20;;
58340;SDS011;44149;43.060;0.104;2022-12-18T01:52:15;0.20;;;0.20;;
58340;SDS011;44149;43.060;0.104;2022-12-18T01:54:41;0.20;;;0.20;;
58340;SDS011;44149;43.060;0.104;2022-12-18T01:57:07;0.20;;;0.20;;
58340;SDS011;44149;43.060;0.104;2022-12-18T01:59:33;0.28;;;0.28;;
58340;SDS011;44149;43.060;0.104;2022-12-18T02:02:01;0.20;;;0.20;;
58340;SDS011;44149;43.060;0.104;2022-12-18T02:04:28;0.20;;;0.20;;
58340;SDS011;44149;43.060;0.104;2022-12-18T02:07:06;0.20;;;0.20;;
58340;SDS011;44149;43.060;0.104;2022-12-18T02:09:40;0.20;;;0.20;;
58340;SDS011;44149;43.060;0.104;2022-12-18T02:12:11;0.20;;;0.20;;
58340;SDS011;44149;43.060;0.104;2022-12-18T02:14:42;0.30;;;0.30;;
58340;SDS011;44149;43.060;0.104;2022-12-18T02:17:16;0.20;;;0.20;;
58340;SDS011;44149;43.060;0.104;2022-12-18T02:27:39;0.20;;;0.20;;
58340;SDS011;44149;43.060;0.104;2022-12-18T02:30:07;0.75;;;0.75;;
58340;SDS011;44149;43.060;0.104;2022-12-18T02:32:35;0.52;;;0.40;;
58340;SDS011;44149;43.060;0.104;2022-12-18T02:35:03;0.55;;;0.50;;
58340;SDS011;44149;43.060;0.104;2022-12-18T02:37:30;0.30;;;0.30;;
58340;SDS011;44149;43.060;0.104;2022-12-18T02:39:58;0.25;;;0.25;;
58340;SDS011;44149;43.060;0.104;2022-12-18T02:42:24;0.30;;;0.30;;
58340;SDS011;44149;43.060;0.104;2022-12-18T02:44:51;0.40;;;0.40;;
58340;SDS011;44149;43.060;0.104;2022-12-18T02:47:21;0.30;;;0.30;;
58340;SDS011;44149;43.060;0.104;2022-12-18T02:54:51;0.63;;;0.47;;
58340;SDS011;44149;43.060;0.104;2022-12-18T02:57:28;0.20;;;0.20;;
58340;SDS011;44149;43.060;0.104;2022-12-18T02:59:58;0.30;;;0.30;;
58340;SDS011;44149;43.060;0.104;2022-12-18T03:05:01;0.20;;;0.20;;
58340;SDS011;44149;43.060;0.104;2022-12-18T03:07:39;0.20;;;0.20;;
58340;SDS011;44149;43.060;0.104;2022-12-18T03:10:07;0.20;;;0.20;;
58340;SDS011;44149;43.060;0.104;2022-12-18T03:12:35;0.35;;;0.35;;
58340;SDS011;44149;43.060;0.104;2022-12-18T03:15:04;1.30;;;0.30;;
58340;SDS011;44149;43.060;0.104;2022-12-18T03:17:31;0.20;;;0.20;;
58340;SDS011;44149;43.060;0.104;2022-12-18T03:19:58;0.20;;;0.20;;
58340;SDS011;44149;43.060;0.104;2022-12-18T03:22:26;0.20;;;0.20;;
58340;SDS011;44149;43.060;0.104;2022-12-18T03:24:53;0.20;;;0.20;;
58340;SDS011;44149;43.060;0.104;2022-12-18T03:27:20;0.20;;;0.20;;
58340;SDS011;44149;43.060;0.104;2022-12-18T03:30:09;0.30;;;0.30;;
58340;SDS011;44149;43.060;0.104;2022-12-18T03:35:07;0.20;;;0.20;;
58340;SDS011;44149;43.060;0.104;2022-12-18T03:37:34;0.20;;;0.20;;
58340;SDS011;44149;43.060;0.104;2022-12-18T03:40:01;0.20;;;0.20;;
58340;SDS011;44149;43.060;0.104;2022-12-18T03:50:25;0.20;;;0.20;;
58340;SDS011;44149;43.060;0.104;2022-12-18T03:55:25;0.20;;;0.20;;
58340;SDS011;44149;43.060;0.104;2022-12-18T03:57:53;0.20;;;0.20;;
58340;SDS011;44149;43.060;0.104;2022-12-18T04:00:20;0.30;;;0.30;;
58340;SDS011;44149;43.060;0.104;2022-12-18T04:02:48;4.85;;;0.40;;
58340;SDS011;44149;43.060;0.104;2022-12-18T04:05:16;0.30;;;0.30;;
58340;SDS011;44149;43.060;0.104;2022-12-18T04:07:43;0.20;;;0.20;;
58340;SDS011;44149;43.060;0.104;2022-12-18T04:10:13;0.30;;;0.30;;
58340;SDS011;44149;43.060;0.104;2022-12-18T04:12:40;0.30;;;0.30;;
58340;SDS011;44149;43.060;0.104;2022-12-18T04:15:06;0.20;;;0.20;;
58340;SDS011;44149;43.060;0.104;2022-12-18T04:17:33;0.22;;;0.22;;
58340;SDS011;44149;43.060;0.104;2022-12-18T04:19:59;0.20;;;0.20;;
58340;SDS011;44149;43.060;0.104;2022-12-18T04:22:25;0.20;;;0.20;;
58340;SDS011;44149;43.060;0.104;2022-12-18T04:24:51;0.30;;;0.30;;
58340;SDS011;44149;43.060;0.104;2022-12-18T04:27:18;0.30;;;0.30;;
58340;SDS011;44149;43.060;0.104;2022-12-18T04:29:44;0.30;;;0.30;;
58340;SDS011;44149;43.060;0.104;2022-12-18T04:32:10;0.20;;;0.20;;
58340;SDS011;44149;43.060;0.104;2022-12-18T04:34:36;0.30;;;0.30;;
58340;SDS011;44149;43.060;0.104;2022-12-18T04:37:02;0.20;;;0.20;;
58340;SDS011;44149;43.060;0.104;2022-12-18T04:39:29;0.20;;;0.20;;
58340;SDS011;44149;43.060;0.104;2022-12-18T04:41:55;0.20;;;0.20;;
58340;SDS011;44149;43.060;0.104;2022-12-18T04:44:21;0.30;;;0.30;;
58340;SDS011;44149;43.060;0.104;2022-12-18T04:46:47;0.20;;;0.20;;
58340;SDS011;44149;43.060;0.104;2022-12-18T04:49:13;0.20;;;0.20;;
58340;SDS011;44149;43.060;0.104;2022-12-18T04:51:40;0.25;;;0.25;;
58340;SDS011;44149;43.060;0.104;2022-12-18T04:54:06;0.20;;;0.20;;
58340;SDS011;44149;43.060;0.104;2022-12-18T04:56:32;0.20;;;0.20;;
58340;SDS011;44149;43.060;0.104;2022-12-18T04:58:58;0.28;;;0.28;;
58340;SDS011;44149;43.060;0.104;2022-12-18T05:01:24;0.30;;;0.30;;
58340;SDS011;44149;43.060;0.104;2022-12-18T05:03:51;0.30;;;0.30;;
58340;SDS011;44149;43.060;0.104;2022-12-18T05:06:17;0.20;;;0.20;;
58340;SDS011;44149;43.060;0.104;2022-12-18T05:08:43;0.30;;;0.30;;
58340;SDS011;44149;43.060;0.104;2022-12-18T05:11:11;0.30;;;0.30;;
58340;SDS011;44149;43.060;0.104;2022-12-18T05:13:39;0.30;;;0.30;;
58340;SDS011;44149;43.060;0.104;2022-12-18T05:16:05;0.20;;;0.20;;
58340;SDS011;44149;43.060;0.104;2022-12-18T05:18:31;0.60;;;0.55;;
58340;SDS011;44149;43.060;0.104;2022-12-18T05:20:58;0.20;;;0.20;;
58340;SDS011;44149;43.060;0.104;2022-12-18T05:23:24;0.20;;;0.20;;
58340;SDS011;44149;43.060;0.104;2022-12-18T05:25:54;0.30;;;0.30;;
58340;SDS011;44149;43.060;0.104;2022-12-18T05:28:21;0.30;;;0.30;;
58340;SDS011;44149;43.060;0.104;2022-12-18T05:30:50;0.20;;;0.20;;
58340;SDS011;44149;43.060;0.104;2022-12-18T05:33:17;0.30;;;0.30;;
58340;SDS011;44149;43.060;0.104;2022-12-18T05:35:43;0.20;;;0.20;;
58340;SDS011;44149;43.060;0.104;2022-12-18T05:38:10;0.30;;;0.30;;
58340;SDS011;44149;43.060;0.104;2022-12-18T05:40:36;0.20;;;0.20;;
58340;SDS011;44149;43.060;0.104;2022-12-18T05:43:05;0.30;;;0.30;;
58340;SDS011;44149;43.060;0.104;2022-12-18T05:45:31;0.20;;;0.20;;
58340;SDS011;44149;43.060;0.104;2022-12-18T05:47:57;0.20;;;0.20;;
58340;SDS011;44149;43.060;0.104;2022-12-18T05:50:23;0.28;;;0.28;;
58340;SDS011;44149;43.060;0.104;2022-12-18T05:52:49;0.30;;;0.30;;
58340;SDS011;44149;43.060;0.104;2022-12-18T05:55:16;0.20;;;0.20;;
58340;SDS011;44149;43.060;0.104;2022-12-18T05:57:42;0.20;;;0.20;;
58340;SDS011;44149;43.060;0.104;2022-12-18T06:00:08;0.20;;;0.20;;
58340;SDS011;44149;43.060;0.104;2022-12-18T06:02:34;0.20;;;0.20;;
58340;SDS011;44149;43.060;0.104;2022-12-18T06:05:01;0.28;;;0.28;;
58340;SDS011;44149;43.060;0.104;2022-12-18T06:07:27;0.20;;;0.20;;
58340;SDS011;44149;43.060;0.104;2022-12-18T06:09:53;0.20;;;0.20;;
58340;SDS011;44149;43.060;0.104;2022-12-18T06:12:19;0.20;;;0.20;;
58340;SDS011;44149;43.060;0.104;2022-12-18T06:14:46;0.25;;;0.25;;
58340;SDS011;44149;43.060;0.104;2022-12-18T06:17:12;0.20;;;0.20;;
58340;SDS011;44149;43.060;0.104;2022-12-18T06:19:38;0.20;;;0.20;;
58340;SDS011;44149;43.060;0.104;2022-12-18T06:22:04;0.20;;;0.20;;
58340;SDS011;44149;43.060;0.104;2022-12-18T06:24:30;0.20;;;0.20;;
58340;SDS011;44149;43.060;0.104;2022-12-18T06:26:58;0.30;;;0.30;;
58340;SDS011;44149;43.060;0.104;2022-12-18T06:29:24;0.20;;;0.20;;
58340;SDS011;44149;43.060;0.104;2022-12-18T06:31:50;0.20;;;0.20;;
58340;SDS011;44149;43.060;0.104;2022-12-18T06:34:16;0.30;;;0.30;;
58340;SDS011;44149;43.060;0.104;2022-12-18T06:36:42;0.20;;;0.20;;
58340;SDS011;44149;43.060;0.104;2022-12-18T06:39:08;0.20;;;0.20;;
58340;SDS011;44149;43.060;0.104;2022-12-18T06:41:35;0.28;;;0.28;;
58340;SDS011;44149;43.060;0.104;2022-12-18T06:44:01;0.20;;;0.20;;
58340;SDS011;44149;43.060;0.104;2022-12-18T06:46:27;0.20;;;0.20;;
58340;SDS011;44149;43.060;0.104;2022-12-18T06:48:53;0.30;;;0.30;;
58340;SDS011;44149;43.060;0.104;2022-12-18T06:51:20;0.20;;;0.20;;
58340;SDS011;44149;43.060;0.104;2022-12-18T06:53:46;0.20;;;0.20;;
58340;SDS011;44149;43.060;0.104;2022-12-18T06:56:13;0.30;;;0.30;;
58340;SDS011;44149;43.060;0.104;2022-12-18T06:58:39;0.20;;;0.20;;
58340;SDS011;44149;43.060;0.104;2022-12-18T07:01:06;0.30;;;0.30;;
58340;SDS011;44149;43.060;0.104;2022-12-18T07:03:32;0.20;;;0.20;;
58340;SDS011;44149;43.060;0.104;2022-12-18T07:05:58;0.22;;;0.22;;
58340;SDS011;44149;43.060;0.104;2022-12-18T07:08:25;6.63;;;1.20;;
58340;SDS011;44149;43.060;0.104;2022-12-18T07:10:51;0.80;;;0.43;;
58340;SDS011;44149;43.060;0.104;2022-12-18T07:13:19;0.75;;;0.60;;
58340;SDS011;44149;43.060;0.104;2022-12-18T07:15:45;2.75;;;1.73;;
58340;SDS011;44149;43.060;0.104;2022-12-18T07:18:11;1.10;;;0.50;;
58340;SDS011;44149;43.060;0.104;2022-12-18T07:20:37;0.20;;;0.20;;
58340;SDS011;44149;43.060;0.104;2022-12-18T07:23:04;0.38;;;0.38;;
58340;SDS011;44149;43.060;0.104;2022-12-18T07:25:33;1.88;;;0.45;;
58340;SDS011;44149;43.060;0.104;2022-12-18T07:27:59;1.10;;;0.82;;
58340;SDS011;44149;43.060;0.104;2022-12-18T07:30:26;0.80;;;0.50;;
58340;SDS011;44149;43.060;0.104;2022-12-18T07:32:52;1.23;;;1.05;;
58340;SDS011;44149;43.060;0.104;2022-12-18T07:35:18;0.75;;;0.75;;
58340;SDS011;44149;43.060;0.104;2022-12-18T07:37:44;0.40;;;0.40;;
58340;SDS011;44149;43.060;0.104;2022-12-18T07:40:10;1.50;;;0.50;;
58340;SDS011;44149;43.060;0.104;2022-12-18T07:42:37;0.65;;;0.65;;
58340;SDS011;44149;43.060;0.104;2022-12-18T07:45:03;0.30;;;0.30;;
58340;SDS011;44149;43.060;0.104;2022-12-18T07:47:35;1.88;;;1.27;;
58340;SDS011;44149;43.060;0.104;2022-12-18T07:50:02;1.27;;;1.08;;
58340;SDS011;44149;43.060;0.104;2022-12-18T07:52:28;0.32;;;0.32;;
58340;SDS011;44149;43.060;0.104;2022-12-18T07:54:55;0.40;;;0.40;;
58340;SDS011;44149;43.060;0.104;2022-12-18T07:57:21;0.70;;;0.52;;
58340;SDS011;44149;43.060;0.104;2022-12-18T07:59:47;3.20;;;0.63;;
58340;SDS011;44149;43.060;0.104;2022-12-18T08:02:13;3.28;;;2.00;;
58340;SDS011;44149;43.060;0.104;2022-12-18T08:04:39;2.67;;;2.47;;
58340;SDS011;44149;43.060;0.104;2022-12-18T08:07:06;0.30;;;0.30;;
58340;SDS011;44149;43.060;0.104;2022-12-18T08:09:32;0.55;;;0.35;;
58340;SDS011;44149;43.060;0.104;2022-12-18T08:11:58;1.55;;;0.47;;
58340;SDS011;44149;43.060;0.104;2022-12-18T08:14:26;0.30;;;0.30;;
58340;SDS011;44149;43.060;0.104;2022-12-18T08:16:56;0.22;;;0.22;;
58340;SDS011;44149;43.060;0.104;2022-12-18T08:19:22;0.20;;;0.20;;
58340;SDS011;44149;43.060;0.104;2022-12-18T08:21:49;0.30;;;0.30;;
58340;SDS011;44149;43.060;0.104;2022-12-18T08:24:15;0.20;;;0.20;;
58340;SDS011;44149;43.060;0.104;2022-12-18T08:26:41;0.30;;;0.30;;
58340;SDS011;44149;43.060;0.104;2022-12-18T08:29:08;0.40;;;0.30;;
58340;SDS011;44149;43.060;0.104;2022-12-18T08:31:34;7.05;;;0.43;;
58340;SDS011;44149;43.060;0.104;2022-12-18T08:34:00;0.30;;;0.30;;
58340;SDS011;44149;43.060;0.104;2022-12-18T08:36:26;0.40;;;0.40;;
58340;SDS011;44149;43.060;0.104;2022-12-18T08:38:53;0.50;;;0.50;;
58340;SDS011;44149;43.060;0.104;2022-12-18T08:41:19;0.40;;;0.40;;
58340;SDS011;44149;43.060;0.104;2022-12-18T08:43:45;0.40;;;0.40;;
58340;SDS011;44149;43.060;0.104;2022-12-18T08:46:40;0.30;;;0.30;;
58340;SDS011;44149;43.060;0.104;2022-12-18T08:49:08;0.20;;;0.20;;
58340;SDS011;44149;43.060;0.104;2022-12-18T08:51:34;0.30;;;0.30;;
58340;SDS011;44149;43.060;0.104;2022-12-18T08:54:01;1.63;;;0.73;;
58340;SDS011;44149;43.060;0.104;2022-12-18T08:56:27;0.60;;;0.60;;
58340;SDS011;44149;43.060;0.104;2022-12-18T08:58:56;0.90;;;0.80;;
58340;SDS011;44149;43.060;0.104;2022-12-18T09:01:24;0.38;;;0.38;;
58340;SDS011;44149;43.060;0.104;2022-12-18T09:03:50;0.30;;;0.30;;
58340;SDS011;44149;43.060;0.104;2022-12-18T09:06:17;0.30;;;0.30;;
58340;SDS011;44149;43.060;0.104;2022-12-18T09:08:44;0.28;;;0.28;;
58340;SDS011;44149;43.060;0.104;2022-12-18T09:11:13;0.73;;;0.30;;
58340;SDS011;44149;43.060;0.104;2022-12-18T09:13:41;1.88;;;0.93;;
58340;SDS011;44149;43.060;0.104;2022-12-18T09:16:07;0.30;;;0.30;;
58340;SDS011;44149;43.060;0.104;2022-12-18T09:18:33;6.53;;;2.13;;
58340;SDS011;44149;43.060;0.104;2022-12-18T09:20:59;2.35;;;0.70;;
58340;SDS011;44149;43.060;0.104;2022-12-18T09:23:26;0.50;;;0.50;;
58340;SDS011;44149;43.060;0.104;2022-12-18T09:25:52;7.10;;;2.95;;
58340;SDS011;44149;43.060;0.104;2022-12-18T09:28:24;0.80;;;0.40;;
58340;SDS011;44149;43.060;0.104;2022-12-18T09:30:50;0.30;;;0.20;;
58340;SDS011;44149;43.060;0.104;2022-12-18T09:33:17;0.82;;;0.40;;
58340;SDS011;44149;43.060;0.104;2022-12-18T09:35:43;0.50;;;0.30;;
58340;SDS011;44149;43.060;0.104;2022-12-18T09:38:14;0.63;;;0.40;;
58340;SDS011;44149;43.060;0.104;2022-12-18T09:40:44;0.30;;;0.30;;
58340;SDS011;44149;43.060;0.104;2022-12-18T09:43:33;0.40;;;0.35;;
58340;SDS011;44149;43.060;0.104;2022-12-18T09:46:05;1.02;;;0.60;;
58340;SDS011;44149;43.060;0.104;2022-12-18T09:48:34;0.95;;;0.95;;
58340;SDS011;44149;43.060;0.104;2022-12-18T09:51:02;0.45;;;0.40;;
58340;SDS011;44149;43.060;0.104;2022-12-18T09:53:30;1.42;;;0.60;;
58340;SDS011;44149;43.060;0.104;2022-12-18T09:55:57;1.27;;;0.40;;
58340;SDS011;44149;43.060;0.104;2022-12-18T09:58:33;0.30;;;0.30;;
58340;SDS011;44149;43.060;0.104;2022-12-18T10:01:01;0.32;;;0.30;;
58340;SDS011;44149;43.060;0.104;2022-12-18T10:03:28;0.38;;;0.38;;
58340;SDS011;44149;43.060;0.104;2022-12-18T10:08:53;0.30;;;0.30;;
58340;SDS011;44149;43.060;0.104;2022-12-18T10:14:09;1.00;;;0.73;;
58340;SDS011;44149;43.060;0.104;2022-12-18T10:16:43;2.67;;;1.20;;
58340;SDS011;44149;43.060;0.104;2022-12-18T10:19:29;1.13;;;0.52;;
58340;SDS011;44149;43.060;0.104;2022-12-18T10:22:11;1.08;;;0.70;;
58340;SDS011;44149;43.060;0.104;2022-12-18T10:27:17;0.30;;;0.30;;
58340;SDS011;44149;43.060;0.104;2022-12-18T10:29:44;0.50;;;0.30;;
58340;SDS011;44149;43.060;0.104;2022-12-18T10:32:18;0.30;;;0.30;;
58340;SDS011;44149;43.060;0.104;2022-12-18T10:34:48;0.20;;;0.20;;
58340;SDS011;44149;43.060;0.104;2022-12-18T10:37:17;0.35;;;0.30;;
58340;SDS011;44149;43.060;0.104;2022-12-18T10:39:44;0.88;;;0.30;;
58340;SDS011;44149;43.060;0.104;2022-12-18T10:42:13;0.55;;;0.40;;
58340;SDS011;44149;43.060;0.104;2022-12-18T10:44:41;0.20;;;0.20;;
58340;SDS011;44149;43.060;0.104;2022-12-18T10:47:11;0.30;;;0.20;;
58340;SDS011;44149;43.060;0.104;2022-12-18T10:49:39;0.60;;;0.20;;
58340;SDS011;44149;43.060;0.104;2022-12-18T10:52:23;0.40;;;0.22;;
58340;SDS011;44149;43.060;0.104;2022-12-18T10:54:52;0.20;;;0.20;;
58340;SDS011;44149;43.060;0.104;2022-12-18T10:57:35;0.40;;;0.30;;
58340;SDS011;44149;43.060;0.104;2022-12-18T11:02:47;0.30;;;0.30;;
58340;SDS011;44149;43.060;0.104;2022-12-18T11:05:24;0.20;;;0.20;;
58340;SDS011;44149;43.060;0.104;2022-12-18T11:07:51;1.02;;;0.30;;
58340;SDS011;44149;43.060;0.104;2022-12-18T11:10:25;0.38;;;0.30;;
58340;SDS011;44149;43.060;0.104;2022-12-18T11:12:52;0.65;;;0.40;;
58340;SDS011;44149;43.060;0.104;2022-12-18T11:15:19;0.20;;;0.20;;
58340;SDS011;44149;43.060;0.104;2022-12-18T11:17:47;0.22;;;0.22;;
58340;SDS011;44149;43.060;0.104;2022-12-18T11:27:41;0.22;;;0.22;;
58340;SDS011;44149;43.060;0.104;2022-12-18T11:30:27;0.63;;;0.30;;
58340;SDS011;44149;43.060;0.104;2022-12-18T11:37:59;0.30;;;0.28;;
58340;SDS011;44149;43.060;0.104;2022-12-18T11:40:33;0.30;;;0.30;;
58340;SDS011;44149;43.060;0.104;2022-12-18T11:45:39;0.20;;;0.20;;
58340;SDS011;44149;43.060;0.104;2022-12-18T11:48:12;0.30;;;0.20;;
58340;SDS011;44149;43.060;0.104;2022-12-18T11:53:11;0.40;;;0.40;;
58340;SDS011;44149;43.060;0.104;2022-12-18T11:59:08;1.55;;;0.25;;
58340;SDS011;44149;43.060;0.104;2022-12-18T12:01:09;0.30;;;0.30;;
58340;SDS011;44149;43.060;0.104;2022-12-18T12:16:23;0.75;;;0.20;;
58340;SDS011;44149;43.060;0.104;2022-12-18T12:19:33;0.95;;;0.47;;
58340;SDS011;44149;43.060;0.104;2022-12-18T12:21:40;0.28;;;0.20;;
58340;SDS011;44149;43.060;0.104;2022-12-18T12:34:26;0.20;;;0.20;;
58340;SDS011;44149;43.060;0.104;2022-12-18T12:39:46;0.63;;;0.30;;
58340;SDS011;44149;43.060;0.104;2022-12-18T12:42:16;0.30;;;0.30;;
58340;SDS011;44149;43.060;0.104;2022-12-18T12:45:04;0.20;;;0.20;;
58340;SDS011;44149;43.060;0.104;2022-12-18T12:47:32;0.20;;;0.20;;
58340;SDS011;44149;43.060;0.104;2022-12-18T12:50:02;0.30;;;0.30;;
58340;SDS011;44149;43.060;0.104;2022-12-18T12:54:55;0.73;;;0.28;;
58340;SDS011;44149;43.060;0.104;2022-12-18T13:00:03;0.30;;;0.30;;
58340;SDS011;44149;43.060;0.104;2022-12-18T13:05:21;0.52;;;0.40;;
58340;SDS011;44149;43.060;0.104;2022-12-18T13:08:09;0.80;;;0.30;;
58340;SDS011;44149;43.060;0.104;2022-12-18T13:10:38;1.08;;;0.38;;
58340;SDS011;44149;43.060;0.104;2022-12-18T13:13:06;0.30;;;0.30;;
58340;SDS011;44149;43.060;0.104;2022-12-18T13:15:48;0.40;;;0.25;;
58340;SDS011;44149;43.060;0.104;2022-12-18T13:20:46;0.40;;;0.38;;
58340;SDS011;44149;43.060;0.104;2022-12-18T13:26:33;0.90;;;0.43;;
58340;SDS011;44149;43.060;0.104;2022-12-18T13:34:12;0.20;;;0.20;;
58340;SDS011;44149;43.060;0.104;2022-12-18T13:36:41;0.65;;;0.43;;
58340;SDS011;44149;43.060;0.104;2022-12-18T13:39:11;2.03;;;0.50;;
58340;SDS011;44149;43.060;0.104;2022-12-18T13:41:37;0.77;;;0.60;;
58340;SDS011;44149;43.060;0.104;2022-12-18T13:47:00;0.30;;;0.30;;
58340;SDS011;44149;43.060;0.104;2022-12-18T13:49:37;2.15;;;0.80;;
58340;SDS011;44149;43.060;0.104;2022-12-18T13:52:14;0.75;;;0.57;;
58340;SDS011;44149;43.060;0.104;2022-12-18T13:54:42;1.23;;;0.50;;
58340;SDS011;44149;43.060;0.104;2022-12-18T13:57:25;0.60;;;0.40;;
58340;SDS011;44149;43.060;0.104;2022-12-18T13:59:51;1.02;;;0.40;;
58340;SDS011;44149;43.060;0.104;2022-12-18T14:02:22;0.45;;;0.30;;
58340;SDS011;44149;43.060;0.104;2022-12-18T14:04:49;0.60;;;0.25;;
58340;SDS011;44149;43.060;0.104;2022-12-18T14:09:45;0.77;;;0.47;;
58340;SDS011;44149;43.060;0.104;2022-12-18T14:12:20;0.75;;;0.50;;
58340;SDS011;44149;43.060;0.104;2022-12-18T14:15:06;0.40;;;0.40;;
58340;SDS011;44149;43.060;0.104;2022-12-18T14:17:35;2.08;;;0.40;;
58340;SDS011;44149;43.060;0.104;2022-12-18T14:20:02;0.50;;;0.47;;
58340;SDS011;44149;43.060;0.104;2022-12-18T14:22:28;1.02;;;0.40;;
58340;SDS011;44149;43.060;0.104;2022-12-18T14:28:02;0.30;;;0.30;;
58340;SDS011;44149;43.060;0.104;2022-12-18T14:30:30;0.95;;;0.60;;
58340;SDS011;44149;43.060;0.104;2022-12-18T14:33:03;1.50;;;0.68;;
58340;SDS011;44149;43.060;0.104;2022-12-18T14:40:36;1.10;;;0.57;;
58340;SDS011;44149;43.060;0.104;2022-12-18T14:43:03;1.45;;;0.60;;
58340;SDS011;44149;43.060;0.104;2022-12-18T14:47:59;0.95;;;0.52;;
58340;SDS011;44149;43.060;0.104;2022-12-18T14:50:25;1.40;;;0.80;;
58340;SDS011;44149;43.060;0.104;2022-12-18T14:52:51;2.20;;;0.65;;
58340;SDS011;44149;43.060;0.104;2022-12-18T14:55:18;1.40;;;0.55;;
58340;SDS011;44149;43.060;0.104;2022-12-18T14:57:45;6.10;;;1.67;;
58340;SDS011;44149;43.060;0.104;2022-12-18T15:00:19;11.60;;;4.32;;
58340;SDS011;44149;43.060;0.104;2022-12-18T15:02:53;3.17;;;1.30;;
58340;SDS011;44149;43.060;0.104;2022-12-18T15:05:21;3.13;;;0.93;;
58340;SDS011;44149;43.060;0.104;2022-12-18T15:07:51;4.50;;;1.40;;
58340;SDS011;44149;43.060;0.104;2022-12-18T15:10:19;3.97;;;1.25;;
58340;SDS011;44149;43.060;0.104;2022-12-18T15:17:57;5.97;;;2.35;;
58340;SDS011;44149;43.060;0.104;2022-12-18T15:20:24;5.18;;;1.70;;
58340;SDS011;44149;43.060;0.104;2022-12-18T15:22:50;1.55;;;0.90;;
58340;SDS011;44149;43.060;0.104;2022-12-18T15:25:31;3.00;;;1.70;;
58340;SDS011;44149;43.060;0.104;2022-12-18T15:27:58;4.20;;;1.20;;
58340;SDS011;44149;43.060;0.104;2022-12-18T15:30:24;2.72;;;1.30;;
58340;SDS011;44149;43.060;0.104;2022-12-18T15:32:51;1.83;;;0.95;;
58340;SDS011;44149;43.060;0.104;2022-12-18T15:35:22;3.00;;;1.80;;
58340;SDS011;44149;43.060;0.104;2022-12-18T15:37:50;6.57;;;3.50;;
58340;SDS011;44149;43.060;0.104;2022-12-18T15:40:17;5.93;;;1.88;;
58340;SDS011;44149;43.060;0.104;2022-12-18T15:42:44;5.18;;;2.08;;
58340;SDS011;44149;43.060;0.104;2022-12-18T15:45:28;2.17;;;1.15;;
58340;SDS011;44149;43.060;0.104;2022-12-18T15:47:55;1.23;;;0.88;;
58340;SDS011;44149;43.060;0.104;2022-12-18T15:50:21;0.80;;;0.80;;
58340;SDS011;44149;43.060;0.104;2022-12-18T15:52:48;2.38;;;1.73;;
58340;SDS011;44149;43.060;0.104;2022-12-18T15:55:21;2.58;;;0.95;;
58340;SDS011;44149;43.060;0.104;2022-12-18T15:58:06;0.70;;;0.57;;
58340;SDS011;44149;43.060;0.104;2022-12-18T16:00:34;2.40;;;0.60;;
58340;SDS011;44149;43.060;0.104;2022-12-18T16:03:00;1.23;;;0.73;;
58340;SDS011;44149;43.060;0.104;2022-12-18T16:05:27;0.88;;;0.77;;
58340;SDS011;44149;43.060;0.104;2022-12-18T16:07:53;3.13;;;1.00;;
58340;SDS011;44149;43.060;0.104;2022-12-18T16:10:20;1.42;;;1.00;;
58340;SDS011;44149;43.060;0.104;2022-12-18T16:12:46;2.55;;;1.50;;
58340;SDS011;44149;43.060;0.104;2022-12-18T16:15:13;3.40;;;1.75;;
58340;SDS011;44149;43.060;0.104;2022-12-18T16:17:41;2.00;;;0.95;;
58340;SDS011;44149;43.060;0.104;2022-12-18T16:20:14;10.48;;;3.25;;
58340;SDS011;44149;43.060;0.104;2022-12-18T16:22:41;15.15;;;4.93;;
58340;SDS011;44149;43.060;0.104;2022-12-18T16:25:30;5.50;;;2.40;;
58340;SDS011;44149;43.060;0.104;2022-12-18T16:27:56;6.60;;;2.25;;
58340;SDS011;44149;43.060;0.104;2022-12-18T16:30:24;6.95;;;2.42;;
58340;SDS011;44149;43.060;0.104;2022-12-18T16:32:52;3.20;;;1.38;;
58340;SDS011;44149;43.060;0.104;2022-12-18T16:35:19;3.15;;;1.15;;
58340;SDS011;44149;43.060;0.104;2022-12-18T16:37:45;3.63;;;1.80;;
58340;SDS011;44149;43.060;0.104;2022-12-18T16:40:13;3.47;;;1.00;;
58340;SDS011;44149;43.060;0.104;2022-12-18T16:42:40;2.38;;;1.13;;
58340;SDS011;44149;43.060;0.104;2022-12-18T16:45:07;3.95;;;1.15;;
58340;SDS011;44149;43.060;0.104;2022-12-18T16:47:34;1.65;;;0.98;;
58340;SDS011;44149;43.060;0.104;2022-12-18T16:50:00;4.40;;;1.63;;
58340;SDS011;44149;43.060;0.104;2022-12-18T16:52:27;6.55;;;2.28;;
58340;SDS011;44149;43.060;0.104;2022-12-18T16:54:54;7.72;;;1.75;;
58340;SDS011;44149;43.060;0.104;2022-12-18T16:57:20;3.40;;;1.45;;
58340;SDS011;44149;43.060;0.104;2022-12-18T16:59:47;3.70;;;1.48;;
58340;SDS011;44149;43.060;0.104;2022-12-18T17:02:14;2.92;;;1.27;;
58340;SDS011;44149;43.060;0.104;2022-12-18T17:04:41;3.17;;;1.27;;